Time;durP1;ratioP1;P1;durP2;ratioP2;P2;SDS_P1;SDS_P2;PMS_P1;PMS_P2;Temp;Humidity;BMP_temperature;BMP_pressure;BME280_temperature;BME280_humidity;BME280_pressure;Samples;Min_cycle;Max_cycle;Signal;HPM_P1;HPM_P2
2021/05/14 00:00:29;;;;;;;2.95;2.65;;;;;18.00;100565.00;;;;5010405;28;20220;-76
2021/05/14 00:03:15;;;;;;;3.47;2.30;;;;;17.90;100570.00;;;;5009934;28;20263;-76
2021/05/14 00:06:00;;;;;;;2.85;2.58;;;;;17.90;100563.00;;;;5009752;28;20212;-76
2021/05/14 00:08:45;;;;;;;2.33;2.13;;;;;17.90;100568.00;;;;5009631;28;20216;-76
2021/05/14 00:11:12;;;;;;;3.70;2.78;;;;;18.10;100563.00;;;;5008627;28;20216;-76
2021/05/14 00:13:39;;;;;;;3.20;2.90;;;;;18.10;100567.00;;;;5019044;28;20200;-75
2021/05/14 00:16:08;;;;;;;3.10;2.60;;;;;18.10;100556.00;;;;5026192;28;20705;-75
2021/05/14 00:18:34;;;;;;;2.55;2.25;;;;;18.10;100560.00;;;;5009506;28;20208;-75
2021/05/14 00:21:38;;;;;;;2.92;2.50;;;;;18.00;100564.00;;;;5009318;28;20223;-75
2021/05/14 00:24:24;;;;;;;3.03;2.72;;;;;18.10;100561.00;;;;5009279;28;20200;-75
2021/05/14 00:27:28;;;;;;;4.50;2.85;;;;;18.00;100569.00;;;;5010024;28;20235;-76
2021/05/14 00:33:36;;;;;;;2.95;2.42;;;;;18.00;100551.00;;;;5027072;28;20243;-76
2021/05/14 00:36:25;;;;;;;2.70;2.45;;;;;18.10;100545.00;;;;5008720;28;20597;-76
2021/05/14 00:41:56;;;;;;;2.45;2.00;;;;;18.10;100552.00;;;;5009699;28;20220;-76
2021/05/14 00:44:46;;;;;;;4.07;2.70;;;;;18.10;100555.00;;;;5009608;28;20209;-75
2021/05/14 00:47:50;;;;;;;3.28;2.15;;;;;18.00;100549.00;;;;5009011;28;20275;-76
2021/05/14 00:50:36;;;;;;;3.17;2.63;;;;;18.10;100555.00;;;;5008242;28;20212;-75
2021/05/14 00:53:04;;;;;;;4.95;2.90;;;;;18.10;100548.00;;;;5008638;28;20224;-76
2021/05/14 00:55:50;;;;;;;3.60;2.42;;;;;18.00;100546.00;;;;5009226;28;20209;-76
2021/05/14 00:58:35;;;;;;;4.38;2.97;;;;;18.00;100544.00;;;;5008936;28;20396;-76
2021/05/14 01:01:39;;;;;;;4.57;2.75;;;;;18.00;100550.00;;;;4989824;28;20209;-75
2021/05/14 01:04:06;;;;;;;3.25;2.88;;;;;18.10;100554.00;;;;4989661;28;20579;-76
2021/05/14 01:06:33;;;;;;;4.75;3.13;;;;;18.20;100554.00;;;;4989043;28;20220;-75
2021/05/14 01:09:01;;;;;;;3.08;2.58;;;;;18.20;100558.00;;;;5008153;28;20627;-75
2021/05/14 01:11:28;;;;;;;3.55;2.95;;;;;18.20;100561.00;;;;5008868;28;20205;-76
2021/05/14 01:13:57;;;;;;;3.83;2.80;;;;;18.20;100554.00;;;;5009469;28;20205;-76
2021/05/14 01:16:23;;;;;;;3.80;3.20;;;;;18.20;100562.00;;;;5008575;28;20750;-76
2021/05/14 01:18:50;;;;;;;3.00;2.72;;;;;18.20;100557.00;;;;5008660;28;20208;-76
2021/05/14 01:21:37;;;;;;;3.70;3.08;;;;;18.20;100556.00;;;;5008795;28;20228;-75
2021/05/14 01:32:56;;;;;;;3.38;2.92;;;;;18.10;100553.00;;;;4993221;28;20686;-76
2021/05/14 01:38:09;;;;;;;3.72;2.97;;;;;18.10;100552.00;;;;4993039;28;20193;-76
2021/05/14 01:40:36;;;;;;;3.70;3.05;;;;;18.10;100548.00;;;;4993451;28;20198;-76
2021/05/14 01:46:07;;;;;;;3.13;2.55;;;;;18.10;100550.00;;;;5008937;28;20734;-76
2021/05/14 01:48:34;;;;;;;5.70;3.25;;;;;18.00;100548.00;;;;5012855;28;20215;-76
2021/05/14 01:51:04;;;;;;;5.53;3.92;;;;;18.00;100558.00;;;;5012665;28;20213;-75
2021/05/14 01:53:32;;;;;;;4.40;3.70;;;;;18.00;100550.00;;;;5012419;28;20229;-76
2021/05/14 01:59:02;;;;;;;3.78;3.13;;;;;17.80;100554.00;;;;5013030;28;20243;-75
2021/05/14 02:01:29;;;;;;;5.32;3.78;;;;;17.90;100547.00;;;;5016052;28;20196;-75
2021/05/14 02:03:56;;;;;;;4.82;3.35;;;;;17.80;100548.00;;;;5032074;28;20207;-76
2021/05/14 02:06:23;;;;;;;4.78;3.88;;;;;17.80;100546.00;;;;5031752;28;20212;-75
2021/05/14 02:09:27;;;;;;;5.57;3.83;;;;;17.70;100542.00;;;;5031720;28;20665;-75
2021/05/14 02:11:54;;;;;;;6.28;3.63;;;;;17.70;100547.00;;;;5031636;28;20227;-76
2021/05/14 02:14:21;;;;;;;4.50;3.80;;;;;17.70;100546.00;;;;5031444;28;20634;-76
2021/05/14 02:19:53;;;;;;;4.70;3.92;;;;;17.50;100554.00;;;;5031749;28;20231;-76
2021/05/14 02:27:51;;;;;;;7.63;4.35;;;;;17.50;100547.00;;;;5031899;28;20207;-75
2021/05/14 02:30:19;;;;;;;6.65;5.10;;;;;17.50;100543.00;;;;5031081;28;20200;-76
2021/05/14 02:35:49;;;;;;;6.00;4.15;;;;;17.40;100551.00;;;;5011934;28;20369;-76
2021/05/14 02:38:16;;;;;;;8.90;5.20;;;;;17.40;100549.00;;;;5011300;28;20200;-76
2021/05/14 02:40:43;;;;;;;6.93;4.38;;;;;17.30;100547.00;;;;5011846;28;20227;-76
2021/05/14 02:43:11;;;;;;;5.72;4.55;;;;;17.30;100553.00;;;;5011058;28;20208;-75
2021/05/14 02:48:23;;;;;;;6.18;4.47;;;;;17.30;100551.00;;;;5030808;28;20234;-76
2021/05/14 02:53:53;;;;;;;5.32;4.05;;;;;17.20;100553.00;;;;5031176;28;20383;-76
2021/05/14 02:59:24;;;;;;;5.45;4.10;;;;;17.00;100547.00;;;;5030909;28;20697;-76
2021/05/14 03:05:32;;;;;;;5.30;4.20;;;;;16.90;100544.00;;;;5011310;28;20211;-76
2021/05/14 03:07:59;;;;;;;3.97;3.58;;;;;17.00;100544.00;;;;5029311;28;20558;-76
2021/05/14 03:16:15;;;;;;;5.70;4.07;;;;;16.90;100539.00;;;;5030095;28;20262;-76
2021/05/14 03:19:01;;;;;;;5.22;4.22;;;;;16.90;100540.00;;;;5013990;28;20708;-75
2021/05/14 03:24:31;;;;;;;5.18;4.43;;;;;16.90;100546.00;;;;5012005;28;20254;-76
2021/05/14 03:33:06;;;;;;;6.22;5.20;;;;;16.80;100550.00;;;;5021964;28;20612;-76
2021/05/14 03:35:51;;;;;;;6.93;4.75;;;;;16.80;100546.00;;;;5030488;28;20227;-75
2021/05/14 03:38:22;;;;;;;5.93;4.30;;;;;16.80;100543.00;;;;5029826;28;20208;-76
2021/05/14 03:40:49;;;;;;;9.40;5.05;;;;;16.80;100551.00;;;;5021556;28;20235;-76
2021/05/14 03:46:20;;;;;;;7.00;4.72;;;;;16.80;100551.00;;;;5009795;28;20347;-75
2021/05/14 03:51:35;;;;;;;6.68;4.50;;;;;16.80;100554.00;;;;5029655;28;20203;-76
2021/05/14 03:54:39;;;;;;;5.07;4.32;;;;;16.70;100555.00;;;;5029704;28;20585;-76
2021/05/14 03:57:25;;;;;;;6.25;4.85;;;;;16.70;100549.00;;;;5029091;28;20658;-76
2021/05/14 03:59:52;;;;;;;5.00;4.07;;;;;16.70;100563.00;;;;5029489;28;20196;-75
2021/05/14 04:02:56;;;;;;;5.70;4.28;;;;;16.60;100550.00;;;;5029727;28;20211;-76
2021/05/14 04:05:24;;;;;;;8.10;3.58;;;;;16.60;100546.00;;;;5029187;28;20567;-75
2021/05/14 04:07:50;;;;;;;5.78;4.32;;;;;16.60;100551.00;;;;5029752;28;20212;-75
2021/05/14 04:10:49;;;;;;;7.70;5.15;;;;;16.50;100547.00;;;;5029230;28;20211;-76
2021/05/14 04:16:21;;;;;;;5.30;4.13;;;;;16.60;100546.00;;;;5010730;28;20666;-76
2021/05/14 04:19:06;;;;;;;5.70;4.53;;;;;16.60;100554.00;;;;5010058;28;20204;-76
2021/05/14 04:24:20;;;;;;;6.55;4.78;;;;;16.60;100551.00;;;;5029291;28;20230;-77
2021/05/14 04:26:48;;;;;;;5.70;4.88;;;;;16.60;100560.00;;;;5029431;28;20259;-75
2021/05/14 04:29:33;;;;;;;7.47;4.90;;;;;16.50;100556.00;;;;5029290;28;20201;-75
2021/05/14 04:32:00;;;;;;;6.30;4.40;;;;;16.60;100562.00;;;;5018895;28;20220;-76
2021/05/14 04:34:27;;;;;;;5.70;4.50;;;;;16.50;100559.00;;;;5009378;28;20219;-76
2021/05/14 04:39:39;;;;;;;7.22;4.47;;;;;16.60;100563.00;;;;5009478;28;20228;-76
2021/05/14 04:42:25;;;;;;;8.02;5.40;;;;;16.40;100558.00;;;;5009679;28;20559;-75
2021/05/14 04:45:10;;;;;;;6.20;4.68;;;;;16.60;100559.00;;;;5017853;28;20228;-76
2021/05/14 04:47:37;;;;;;;5.45;4.03;;;;;16.60;100553.00;;;;5010805;28;20205;-76
2021/05/14 04:50:05;;;;;;;6.82;4.80;;;;;16.60;100560.00;;;;5009255;28;20208;-76
2021/05/14 04:52:54;;;;;;;7.15;5.40;;;;;16.50;100563.00;;;;5008961;28;20229;-76
2021/05/14 04:58:44;;;;;;;7.07;4.22;;;;;16.60;100563.00;;;;5009425;28;20299;-75
2021/05/14 05:01:14;;;;;;;5.70;4.25;;;;;16.60;100563.00;;;;5007845;28;20197;-75
2021/05/14 05:03:44;;;;;;;6.20;4.43;;;;;16.60;100566.00;;;;5009497;28;20595;-76
2021/05/14 05:06:11;;;;;;;8.75;5.30;;;;;16.70;100568.00;;;;5021235;28;20274;-76
2021/05/14 05:08:38;;;;;;;6.53;4.22;;;;;16.70;100569.00;;;;5029290;28;20212;-76
2021/05/14 05:11:05;;;;;;;7.00;4.68;;;;;16.70;100563.00;;;;5027978;28;20211;-76
2021/05/14 05:14:09;;;;;;;7.63;4.65;;;;;16.60;100571.00;;;;5028578;28;20729;-75
2021/05/14 05:17:13;;;;;;;7.28;4.50;;;;;16.60;100571.00;;;;5028181;28;20204;-76
2021/05/14 05:20:17;;;;;;;6.85;4.53;;;;;16.60;100576.00;;;;5028814;28;20231;-75
2021/05/14 05:23:05;;;;;;;6.60;4.72;;;;;16.60;100579.00;;;;5027387;28;20203;-76
2021/05/14 05:25:32;;;;;;;6.40;4.45;;;;;16.80;100581.00;;;;5028506;28;20707;-76
2021/05/14 05:27:59;;;;;;;8.32;5.30;;;;;16.80;100579.00;;;;5028777;28;20208;-76
2021/05/14 05:33:30;;;;;;;6.63;5.00;;;;;16.70;100594.00;;;;5027869;28;20242;-76
2021/05/14 05:39:20;;;;;;;5.32;4.30;;;;;16.60;100596.00;;;;5025560;28;20218;-76
2021/05/14 05:42:06;;;;;;;6.35;4.40;;;;;16.60;100593.00;;;;5007823;28;20247;-76
2021/05/14 05:44:32;;;;;;;8.27;5.15;;;;;16.80;100594.00;;;;5008123;28;20213;-75
2021/05/14 05:46:59;;;;;;;7.95;5.15;;;;;16.80;100594.00;;;;5008514;28;20209;-75
2021/05/14 05:52:30;;;;;;;6.35;4.68;;;;;16.80;100601.00;;;;5028099;28;20274;-75
2021/05/14 05:55:16;;;;;;;6.70;5.05;;;;;16.80;100596.00;;;;5027822;28;20242;-75
2021/05/14 05:57:43;;;;;;;7.55;5.35;;;;;16.80;100596.00;;;;5028020;28;20207;-76
2021/05/14 06:00:10;;;;;;;8.98;5.65;;;;;16.80;100601.00;;;;5028472;28;20561;-76
2021/05/14 06:02:56;;;;;;;8.85;5.70;;;;;16.70;100605.00;;;;5028311;28;20562;-76
2021/05/14 06:08:28;;;;;;;11.43;5.32;;;;;16.90;100606.00;;;;5027445;28;20681;-75
2021/05/14 06:11:14;;;;;;;7.47;5.30;;;;;16.90;100599.00;;;;5028480;28;20254;-76
2021/05/14 06:13:41;;;;;;;9.85;4.75;;;;;16.90;100600.00;;;;5022862;28;20232;-75
2021/05/14 06:16:08;;;;;;;7.78;5.72;;;;;17.00;100606.00;;;;5011822;28;20201;-75
2021/05/14 06:18:37;;;;;;;7.25;5.00;;;;;17.00;100614.00;;;;5011546;28;20578;-75
2021/05/14 06:21:23;;;;;;;6.40;4.75;;;;;16.90;100604.00;;;;5011642;28;20224;-76
2021/05/14 06:23:49;;;;;;;5.68;4.60;;;;;17.10;100612.00;;;;5012038;28;20212;-75
2021/05/14 06:26:17;;;;;;;6.13;4.75;;;;;17.10;100616.00;;;;5011856;28;20201;-76
2021/05/14 06:32:06;;;;;;;7.20;4.50;;;;;17.00;100621.00;;;;5012667;28;20267;-75
2021/05/14 06:37:37;;;;;;;7.18;5.10;;;;;17.10;100620.00;;;;5010937;28;20682;-76
2021/05/14 06:40:06;;;;;;;7.22;5.07;;;;;17.20;100617.00;;;;5011807;28;20251;-75
2021/05/14 06:45:18;;;;;;;9.05;6.00;;;;;17.30;100626.00;;;;5011189;28;20689;-76
2021/05/14 06:47:45;;;;;;;7.57;4.57;;;;;17.30;100625.00;;;;5019914;28;20208;-76
2021/05/14 06:50:31;;;;;;;5.85;4.75;;;;;17.30;100631.00;;;;5030695;28;20200;-75
2021/05/14 06:53:17;;;;;;;7.15;5.30;;;;;17.40;100638.00;;;;5031480;28;20235;-75
2021/05/14 06:55:44;;;;;;;6.97;4.93;;;;;17.40;100647.00;;;;5031211;28;20200;-76
2021/05/14 06:58:11;;;;;;;7.18;5.22;;;;;17.40;100646.00;;;;5030680;28;20204;-76
2021/05/14 07:00:38;;;;;;;6.50;5.22;;;;;17.40;100645.00;;;;5030931;28;20196;-76
2021/05/14 07:03:05;;;;;;;9.07;5.15;;;;;17.40;100645.00;;;;5030591;28;20216;-76
2021/05/14 07:05:32;;;;;;;5.85;4.38;;;;;17.50;100646.00;;;;5016124;28;20208;-75
2021/05/14 07:07:58;;;;;;;5.68;4.53;;;;;17.50;100644.00;;;;5011454;28;20215;-76
2021/05/14 07:11:02;;;;;;;6.20;4.88;;;;;17.40;100649.00;;;;5011042;28;20201;-75
2021/05/14 07:13:30;;;;;;;7.90;5.00;;;;;17.60;100639.00;;;;5010539;28;20652;-75
2021/05/14 07:15:57;;;;;;;6.45;4.57;;;;;17.60;100643.00;;;;5011136;28;20584;-75
2021/05/14 07:21:47;;;;;;;8.10;5.65;;;;;17.60;100648.00;;;;5011107;28;20688;-76
2021/05/14 07:24:14;;;;;;;6.47;4.68;;;;;17.80;100642.00;;;;5009583;28;20208;-76
2021/05/14 07:29:26;;;;;;;7.50;4.95;;;;;17.90;100640.00;;;;5010645;28;20593;-76
2021/05/14 07:31:53;;;;;;;7.47;4.93;;;;;17.90;100643.00;;;;5010435;28;20660;-76
2021/05/14 07:34:19;;;;;;;6.15;5.18;;;;;18.00;100647.00;;;;5026480;28;20220;-76
2021/05/14 07:39:31;;;;;;;6.63;5.03;;;;;18.10;100648.00;;;;5014984;28;20747;-76
2021/05/14 07:41:58;;;;;;;6.10;4.68;;;;;18.10;100645.00;;;;5010598;28;20229;-76
2021/05/14 07:44:44;;;;;;;4.50;4.07;;;;;18.10;100648.00;;;;5012408;28;20193;-76
2021/05/14 07:47:30;;;;;;;6.20;4.15;;;;;18.20;100652.00;;;;5017533;28;20193;-76
2021/05/14 07:50:15;;;;;;;5.38;4.28;;;;;18.30;100656.00;;;;5010531;28;20253;-76
2021/05/14 07:52:42;;;;;;;5.97;4.65;;;;;18.40;100650.00;;;;5010026;28;20224;-76
2021/05/14 07:55:09;;;;;;;6.75;4.47;;;;;18.50;100661.00;;;;5013555;28;20240;-76
2021/05/14 07:57:36;;;;;;;4.80;4.30;;;;;18.60;100661.00;;;;5030285;28;20204;-76
2021/05/14 08:00:05;;;;;;;8.35;5.20;;;;;18.70;100667.00;;;;5028981;28;20242;-76
2021/05/14 08:02:32;;;;;;;4.70;3.88;;;;;18.90;100669.00;;;;5029627;28;20720;-76
2021/05/14 08:04:59;;;;;;;7.47;4.22;;;;;18.90;100669.00;;;;5029943;28;20266;-76
2021/05/14 08:07:26;;;;;;;5.65;4.75;;;;;19.00;100675.00;;;;5029791;28;20207;-76
2021/05/14 08:12:37;;;;;;;5.90;4.03;;;;;19.10;100676.00;;;;5022416;28;20228;-76
2021/05/14 08:17:51;;;;;;;5.20;4.15;;;;;19.20;100672.00;;;;5009478;28;20342;-76
2021/05/14 08:20:18;;;;;;;4.90;4.13;;;;;19.30;100673.00;;;;5010011;28;20225;-76
2021/05/14 08:23:04;;;;;;;5.07;4.05;;;;;19.30;100670.00;;;;5010126;28;20535;-76
2021/05/14 08:25:30;;;;;;;4.50;3.47;;;;;19.30;100672.00;;;;5009850;28;20201;-75
2021/05/14 08:27:57;;;;;;;4.50;4.00;;;;;19.30;100676.00;;;;5009102;28;20556;-76
2021/05/14 08:30:24;;;;;;;5.10;4.22;;;;;19.30;100677.00;;;;5010365;28;20216;-76
2021/05/14 08:35:37;;;;;;;4.05;3.65;;;;;19.30;100678.00;;;;5023471;28;20636;-77
2021/05/14 08:38:05;;;;;;;4.97;3.92;;;;;19.30;100682.00;;;;5028928;28;20206;-76
2021/05/14 08:40:33;;;;;;;4.30;3.67;;;;;19.40;100687.00;;;;5029157;28;20581;-76
2021/05/14 08:43:18;;;;;;;5.38;4.30;;;;;19.30;100688.00;;;;5029107;28;20212;-76
2021/05/14 08:45:45;;;;;;;5.47;4.10;;;;;19.40;100695.00;;;;5028146;28;20225;-76
2021/05/14 08:48:49;;;;;;;4.32;3.80;;;;;19.30;100702.00;;;;5009576;28;20563;-76
2021/05/14 08:54:19;;;;;;;4.05;3.45;;;;;19.30;100698.00;;;;5008824;28;20235;-76
2021/05/14 08:56:46;;;;;;;5.43;4.68;;;;;19.30;100706.00;;;;5009942;28;20212;-76
2021/05/14 08:59:31;;;;;;;5.00;4.18;;;;;19.30;100707.00;;;;5009607;28;20197;-76
2021/05/14 09:05:02;;;;;;;5.10;4.30;;;;;19.30;100704.00;;;;5009626;28;20216;-76
2021/05/14 09:07:48;;;;;;;4.55;4.07;;;;;19.10;100701.00;;;;5007662;28;20193;-76
2021/05/14 09:10:14;;;;;;;4.75;4.20;;;;;19.20;100704.00;;;;5008199;28;20201;-76
2021/05/14 09:12:43;;;;;;;11.30;4.43;;;;;19.20;100709.00;;;;5008816;28;20232;-76
2021/05/14 09:18:47;;;;;;;5.43;4.03;;;;;19.20;100707.00;;;;5008013;28;20314;-76
2021/05/14 09:21:19;;;;;;;5.32;4.35;;;;;19.20;100711.00;;;;5008531;28;20221;-77
2021/05/14 09:29:53;;;;;;;7.18;4.15;;;;;19.30;100723.00;;;;5008140;28;20195;-76
2021/05/14 09:44:05;;;;;;;4.55;4.03;;;;;19.50;100720.00;;;;5007810;28;20252;-76
2021/05/14 09:46:34;;;;;;;4.90;4.40;;;;;19.60;100710.00;;;;5007562;28;20251;-76
2021/05/14 09:49:21;;;;;;;6.47;5.05;;;;;19.70;100715.00;;;;5010777;28;20200;-76
2021/05/14 09:54:37;;;;;;;6.13;5.18;;;;;19.90;100721.00;;;;5011854;28;20579;-77
2021/05/14 10:03:04;;;;;;;6.75;5.38;;;;;20.40;100716.00;;;;5032164;28;20639;-77
2021/05/14 10:08:55;;;;;;;7.50;5.80;;;;;20.80;100715.00;;;;5012178;28;20212;-77
2021/05/14 10:11:23;;;;;;;6.00;4.75;;;;;21.10;100709.00;;;;5017132;28;20278;-77
2021/05/14 10:16:54;;;;;;;6.75;5.75;;;;;21.40;100701.00;;;;5031601;28;20211;-77
2021/05/14 10:19:41;;;;;;;8.52;6.55;;;;;21.40;100706.00;;;;5030365;28;20209;-77
2021/05/14 10:25:14;;;;;;;6.78;5.82;;;;;21.80;100702.00;;;;5031524;28;20207;-78
2021/05/14 10:27:44;;;;;;;10.82;7.28;;;;;22.10;100702.00;;;;5030685;28;20551;-77
2021/05/14 10:30:12;;;;;;;9.57;7.75;;;;;22.20;100696.00;;;;5030400;28;20208;-77
2021/05/14 10:32:51;;;;;;;8.38;6.28;;;;;22.20;100698.00;;;;5030912;28;20228;-77
2021/05/14 10:35:37;;;;;;;8.23;6.38;;;;;22.30;100705.00;;;;5030572;28;20246;-78
2021/05/14 10:38:30;;;;;;;9.23;6.45;;;;;22.30;100707.00;;;;5030484;28;20208;-78
2021/05/14 10:40:57;;;;;;;6.65;5.78;;;;;22.40;100702.00;;;;5030617;28;20304;-78
2021/05/14 10:43:58;;;;;;;6.25;5.20;;;;;22.40;100697.00;;;;5030825;28;20209;-78
2021/05/14 10:49:14;;;;;;;5.85;4.68;;;;;22.80;100704.00;;;;5010581;28;20205;-78
2021/05/14 10:52:01;;;;;;;7.13;5.47;;;;;22.80;100702.00;;;;5010960;28;20212;-78
2021/05/14 10:54:50;;;;;;;5.53;4.95;;;;;22.90;100711.00;;;;5012629;28;20235;-78
2021/05/14 10:57:48;;;;;;;8.27;4.75;;;;;23.00;100702.00;;;;5011003;28;20299;-78
2021/05/14 11:00:49;;;;;;;7.20;4.82;;;;;23.10;100702.00;;;;5009603;28;20201;-78
2021/05/14 11:03:35;;;;;;;5.90;4.90;;;;;23.30;100706.00;;;;5012032;28;20654;-78
2021/05/14 11:06:12;;;;;;;5.22;4.68;;;;;23.40;100703.00;;;;5025537;28;20208;-78
2021/05/14 11:09:01;;;;;;;5.25;4.47;;;;;23.50;100705.00;;;;5031132;28;20216;-78
2021/05/14 11:11:28;;;;;;;4.95;4.43;;;;;23.50;100703.00;;;;5030703;28;20252;-78
2021/05/14 11:13:56;;;;;;;6.28;5.47;;;;;23.40;100701.00;;;;5030687;28;20224;-78
2021/05/14 11:16:39;;;;;;;5.70;4.75;;;;;23.40;100696.00;;;;5030419;28;20211;-78
2021/05/14 11:22:26;;;;;;;6.47;4.95;;;;;23.50;100697.00;;;;5010711;28;20247;-77
2021/05/14 11:25:14;;;;;;;7.45;4.72;;;;;23.60;100707.00;;;;5010511;28;20213;-78
2021/05/14 11:27:42;;;;;;;6.55;5.63;;;;;23.60;100701.00;;;;5011092;28;20750;-78
2021/05/14 11:30:12;;;;;;;7.88;5.20;;;;;23.60;100704.00;;;;5010763;28;20299;-78
2021/05/14 11:35:25;;;;;;;8.18;4.97;;;;;23.70;100706.00;;;;5010670;28;20211;-78
2021/05/14 11:38:16;;;;;;;6.20;4.80;;;;;23.60;100700.00;;;;5011713;28;20266;-78
2021/05/14 11:43:30;;;;;;;5.72;4.20;;;;;23.80;100700.00;;;;5010411;28;20207;-78
2021/05/14 11:45:58;;;;;;;5.38;4.72;;;;;23.80;100701.00;;;;5010072;28;20249;-78
2021/05/14 11:51:51;;;;;;;3.70;3.13;;;;;23.80;100697.00;;;;5009980;28;20255;-78
2021/05/14 11:54:17;;;;;;;5.40;3.90;;;;;23.90;100703.00;;;;5010078;28;20233;-77
2021/05/14 12:00:08;;;;;;;5.95;3.97;;;;;23.70;100696.00;;;;5010229;28;20212;-77
2021/05/14 12:03:02;;;;;;;4.90;3.28;;;;;23.80;100697.00;;;;5009924;28;20205;-77
2021/05/14 12:08:33;;;;;;;4.10;3.38;;;;;23.90;100696.00;;;;5009250;28;20204;-78
2021/05/14 12:14:07;;;;;;;4.78;4.10;;;;;24.10;100686.00;;;;5029642;28;20613;-77
2021/05/14 12:16:36;;;;;;;5.60;4.28;;;;;24.30;100676.00;;;;5029070;28;20196;-77
2021/05/14 12:19:04;;;;;;;5.65;4.50;;;;;24.50;100684.00;;;;5028804;28;20203;-78
2021/05/14 12:21:32;;;;;;;5.25;4.40;;;;;24.60;100680.00;;;;5029014;28;20282;-78
2021/05/14 12:24:11;;;;;;;4.20;3.47;;;;;24.60;100686.00;;;;5029095;28;20212;-77
2021/05/14 12:26:57;;;;;;;3.90;3.33;;;;;24.70;100686.00;;;;5029246;28;20192;-78
2021/05/14 12:29:25;;;;;;;4.45;2.92;;;;;24.80;100682.00;;;;5008903;28;20205;-77
2021/05/14 12:34:51;;;;;;;4.30;3.72;;;;;24.90;100692.00;;;;5009330;28;20227;-77
2021/05/14 12:37:18;;;;;;;4.70;4.07;;;;;25.00;100692.00;;;;5022834;28;20232;-77
2021/05/14 12:49:09;;;;;;;5.65;4.40;;;;;24.70;100681.00;;;;5008980;28;20569;-77
2021/05/14 12:55:47;;;;;;;3.55;3.10;;;;;24.50;100685.00;;;;5008111;28;20435;-78
2021/05/14 12:58:14;;;;;;;4.35;3.30;;;;;24.60;100681.00;;;;5009213;28;20201;-77
2021/05/14 13:01:01;;;;;;;4.57;2.67;;;;;24.40;100684.00;;;;5009131;28;20208;-78
2021/05/14 13:03:46;;;;;;;4.40;2.53;;;;;24.40;100676.00;;;;5008911;28;20707;-78
2021/05/14 13:06:13;;;;;;;4.38;2.53;;;;;24.60;100685.00;;;;5008550;28;20216;-78
2021/05/14 13:08:41;;;;;;;3.17;2.67;;;;;24.60;100679.00;;;;5008810;28;20201;-78
2021/05/14 13:11:12;;;;;;;3.22;2.63;;;;;24.60;100680.00;;;;5008606;28;20540;-78
2021/05/14 13:13:57;;;;;;;3.85;2.53;;;;;24.70;100687.00;;;;5008669;28;20283;-78
2021/05/14 13:16:43;;;;;;;5.10;2.72;;;;;24.60;100679.00;;;;5008080;28;20205;-77
2021/05/14 13:19:28;;;;;;;3.08;2.10;;;;;24.60;100688.00;;;;5020284;28;20219;-75
2021/05/14 13:22:14;;;;;;;3.40;2.03;;;;;24.70;100685.00;;;;5027608;28;20196;-76
2021/05/14 13:25:01;;;;;;;2.78;2.25;;;;;24.60;100693.00;;;;5028471;28;20200;-78
2021/05/14 13:27:27;;;;;;;3.45;2.00;;;;;24.70;100690.00;;;;5027756;28;20203;-77
2021/05/14 13:30:13;;;;;;;3.45;2.40;;;;;24.70;100688.00;;;;5027523;28;20196;-77
2021/05/14 13:39:05;;;;;;;3.40;1.83;;;;;24.60;100686.00;;;;5027630;28;20724;-76
2021/05/14 13:41:33;;;;;;;2.67;2.25;;;;;24.80;100686.00;;;;5026992;28;20218;-76
2021/05/14 13:44:19;;;;;;;2.88;1.98;;;;;24.80;100680.00;;;;5027746;28;20215;-76
2021/05/14 13:47:04;;;;;;;3.58;1.70;;;;;25.10;100683.00;;;;5022086;28;20236;-78
2021/05/14 13:52:16;;;;;;;1.75;1.60;;;;;25.60;100687.00;;;;5012135;28;20728;-78
2021/05/14 13:54:43;;;;;;;2.83;2.35;;;;;25.90;100675.00;;;;5027861;28;20228;-78
2021/05/14 13:57:29;;;;;;;2.42;1.55;;;;;26.40;100686.00;;;;5027554;28;20588;-78
2021/05/14 14:00:14;;;;;;;3.03;1.77;;;;;27.20;100683.00;;;;5027919;28;20276;-76
2021/05/14 14:03:18;;;;;;;2.20;1.67;;;;;27.70;100689.00;;;;5028054;28;20557;-77
2021/05/14 14:06:04;;;;;;;3.45;2.30;;;;;28.00;100691.00;;;;5028503;28;20212;-77
2021/05/14 14:08:31;;;;;;;3.33;2.22;;;;;27.80;100684.00;;;;5027755;28;20208;-76
2021/05/14 14:10:59;;;;;;;3.50;2.90;;;;;27.60;100678.00;;;;5009775;28;20296;-76
2021/05/14 14:13:45;;;;;;;4.15;2.65;;;;;27.40;100680.00;;;;5007593;28;20225;-77
2021/05/14 14:22:18;;;;;;;2.38;2.15;;;;;27.40;100684.00;;;;5007768;28;20215;-77
2021/05/14 14:24:45;;;;;;;3.10;2.25;;;;;27.30;100673.00;;;;5007724;28;20643;-77
2021/05/14 14:29:57;;;;;;;2.72;2.28;;;;;27.40;100669.00;;;;5008326;28;20263;-76
2021/05/14 14:32:24;;;;;;;3.72;2.40;;;;;27.60;100668.00;;;;5007571;28;20215;-77
2021/05/14 14:43:23;;;;;;;4.30;2.00;;;;;27.20;100669.00;;;;5024784;28;20243;-77
2021/05/14 14:46:09;;;;;;;4.07;2.63;;;;;27.10;100670.00;;;;5011433;28;20653;-77
2021/05/14 14:48:55;;;;;;;4.63;2.22;;;;;26.90;100655.00;;;;5011434;28;20212;-77
2021/05/14 14:51:22;;;;;;;3.83;2.15;;;;;26.70;100663.00;;;;5010917;28;20611;-77
2021/05/14 14:54:07;;;;;;;3.42;2.45;;;;;26.40;100656.00;;;;5011093;28;20698;-76
2021/05/14 14:59:56;;;;;;;2.67;2.00;;;;;26.30;100656.00;;;;5011977;28;20403;-76
2021/05/14 15:02:43;;;;;;;4.95;2.45;;;;;26.70;100654.00;;;;5010776;28;20240;-76
2021/05/14 15:05:29;;;;;;;3.00;2.70;;;;;27.20;100649.00;;;;5010906;28;20197;-76
2021/05/14 15:07:56;;;;;;;4.20;2.97;;;;;27.30;100649.00;;;;5010592;28;20204;-77
2021/05/14 15:10:42;;;;;;;3.80;2.53;;;;;27.30;100649.00;;;;5011055;28;20279;-77
2021/05/14 15:13:08;;;;;;;3.65;2.25;;;;;27.30;100649.00;;;;5011470;28;20225;-77
2021/05/14 15:15:35;;;;;;;2.85;2.30;;;;;27.30;100650.00;;;;5010467;28;20209;-77
2021/05/14 15:18:21;;;;;;;3.22;2.13;;;;;27.50;100648.00;;;;5021426;28;20257;-77
2021/05/14 15:21:06;;;;;;;4.53;2.40;;;;;27.60;100655.00;;;;5030580;28;20216;-77
2021/05/14 15:23:54;;;;;;;3.30;2.67;;;;;27.50;100655.00;;;;5030901;28;20250;-76
2021/05/14 15:26:58;;;;;;;3.78;2.35;;;;;27.40;100661.00;;;;5030350;28;20200;-77
2021/05/14 15:30:02;;;;;;;3.78;2.15;;;;;27.30;100657.00;;;;5029708;28;20200;-76
2021/05/14 15:32:29;;;;;;;3.42;2.65;;;;;27.20;100670.00;;;;5030217;28;20203;-76
2021/05/14 15:34:56;;;;;;;3.75;1.77;;;;;27.00;100671.00;;;;5029455;28;20266;-76
2021/05/14 15:40:27;;;;;;;2.72;1.80;;;;;27.30;100669.00;;;;5030073;28;20203;-77
2021/05/14 15:42:54;;;;;;;3.70;2.38;;;;;27.30;100669.00;;;;5030026;28;20197;-77
2021/05/14 15:45:21;;;;;;;5.63;2.35;;;;;27.30;100666.00;;;;5028846;28;20800;-76
2021/05/14 15:48:13;;;;;;;3.97;2.38;;;;;27.10;100673.00;;;;5029903;28;20571;-77
2021/05/14 15:51:18;;;;;;;2.17;1.80;;;;;26.80;100673.00;;;;5030219;28;20212;-77
2021/05/14 15:53:45;;;;;;;2.58;2.00;;;;;26.70;100682.00;;;;5010143;28;20224;-78
2021/05/14 15:56:13;;;;;;;4.45;2.45;;;;;26.50;100692.00;;;;5010034;28;20243;-77
2021/05/14 15:58:58;;;;;;;3.75;2.05;;;;;26.10;100692.00;;;;5010078;28;20211;-76
2021/05/14 16:01:24;;;;;;;4.90;2.53;;;;;25.80;100684.00;;;;5009084;28;20209;-77
2021/05/14 16:03:51;;;;;;;4.30;1.95;;;;;25.50;100683.00;;;;5010188;28;20201;-77
2021/05/14 16:06:18;;;;;;;4.32;2.35;;;;;25.30;100677.00;;;;5009690;28;20691;-77
2021/05/14 16:08:45;;;;;;;4.60;2.50;;;;;25.00;100683.00;;;;5010249;28;20205;-76
2021/05/14 16:13:57;;;;;;;3.50;2.08;;;;;24.50;100680.00;;;;5010014;28;21125;-76
2021/05/14 16:16:24;;;;;;;4.47;2.72;;;;;24.30;100678.00;;;;5019970;28;20689;-76
2021/05/14 16:18:52;;;;;;;5.15;2.58;;;;;24.10;100678.00;;;;5029690;28;20207;-76
2021/05/14 16:21:37;;;;;;;5.05;2.10;;;;;23.80;100685.00;;;;5028397;28;20705;-76
2021/05/14 16:24:24;;;;;;;7.78;3.50;;;;;23.80;100691.00;;;;5029124;28;20204;-76
2021/05/14 16:26:51;;;;;;;4.55;2.95;;;;;23.60;100683.00;;;;5011604;28;20213;-76
2021/05/14 16:32:03;;;;;;;4.75;3.80;;;;;23.30;100683.00;;;;5009386;28;20573;-76
2021/05/14 16:34:30;;;;;;;3.88;3.40;;;;;23.10;100677.00;;;;5009030;28;20225;-77
2021/05/14 16:39:42;;;;;;;5.90;3.63;;;;;22.80;100682.00;;;;5029203;28;20211;-77
2021/05/14 16:42:11;;;;;;;4.88;3.65;;;;;22.70;100682.00;;;;5024702;28;20209;-76
2021/05/14 16:44:38;;;;;;;3.70;3.38;;;;;22.60;100687.00;;;;5010000;28;20239;-77
2021/05/14 16:47:05;;;;;;;4.25;2.70;;;;;22.50;100683.00;;;;5020059;28;20197;-76
2021/05/14 16:49:32;;;;;;;3.38;2.40;;;;;22.30;100680.00;;;;5008471;28;20560;-76
2021/05/14 16:55:22;;;;;;;2.53;2.33;;;;;22.10;100681.00;;;;5009089;28;20251;-76